createdAt,value
2022-09-07T00:02:01.783Z,10.90
2022-09-07T00:04:28.434Z,8.30
2022-09-07T00:06:55.107Z,6.10
2022-09-07T00:09:21.753Z,7.70
2022-09-07T00:11:48.329Z,11.90
2022-09-07T00:14:14.907Z,6.80
2022-09-07T00:16:41.726Z,9.37
2022-09-07T00:19:08.349Z,10.83
2022-09-07T00:21:35.533Z,6.90
2022-09-07T00:24:02.288Z,6.30
2022-09-07T00:26:30.905Z,8.30
2022-09-07T00:29:00.129Z,7.33
2022-09-07T00:31:28.047Z,6.23
2022-09-07T00:33:58.291Z,8.07
2022-09-07T00:36:25.333Z,7.43
2022-09-07T00:38:52.061Z,13.40
2022-09-07T00:41:20.466Z,6.63
2022-09-07T00:43:50.316Z,10.43
2022-09-07T00:46:23.641Z,8.83
2022-09-07T00:49:16.599Z,6.73
2022-09-07T00:51:52.346Z,11.30
2022-09-07T00:54:25.425Z,9.07
2022-09-07T00:56:53.601Z,7.23
2022-09-07T00:59:25.131Z,8.83
2022-09-07T01:01:52.146Z,7.47
2022-09-07T01:04:20.006Z,8.60
2022-09-07T01:06:46.670Z,7.30
2022-09-07T01:09:16.924Z,9.43
2022-09-07T01:11:50.597Z,9.10
2022-09-07T01:14:21.114Z,10.50
2022-09-07T01:17:28.637Z,9.47
2022-09-07T01:20:38.864Z,7.57
2022-09-07T01:23:32.548Z,7.67
2022-09-07T01:26:29.563Z,7.23
2022-09-07T01:29:35.500Z,12.87
2022-09-07T01:32:25.317Z,12.60
2022-09-07T01:34:53.759Z,18.03
2022-09-07T01:37:44.658Z,7.20
2022-09-07T01:40:24.323Z,7.33
2022-09-07T01:43:22.423Z,12.37
2022-09-07T01:45:52.634Z,10.63
2022-09-07T01:48:21.554Z,9.87
2022-09-07T01:51:02.494Z,8.10
2022-09-07T01:53:48.171Z,7.63
2022-09-07T01:56:21.523Z,9.53
2022-09-07T01:58:57.048Z,7.63
2022-09-07T02:01:33.321Z,12.20
2022-09-07T02:04:19.632Z,6.57
2022-09-07T02:06:50.766Z,14.60
2022-09-07T02:09:21.442Z,8.13
2022-09-07T02:11:50.147Z,11.43
2022-09-07T02:14:24.950Z,8.20
2022-09-07T02:17:10.760Z,8.67
2022-09-07T02:19:43.009Z,8.93
2022-09-07T02:22:14.400Z,8.27
2022-09-07T02:24:45.904Z,12.90
2022-09-07T02:27:21.921Z,10.53
2022-09-07T02:29:48.671Z,9.57
2022-09-07T02:32:15.422Z,11.00
2022-09-07T02:34:42.024Z,9.93
2022-09-07T02:37:09.716Z,8.83
2022-09-07T02:39:36.807Z,7.63
2022-09-07T02:42:03.680Z,8.30
2022-09-07T02:44:35.463Z,8.73
2022-09-07T02:47:14.644Z,12.13
2022-09-07T02:50:18.828Z,8.47
2022-09-07T02:52:59.031Z,8.00
2022-09-07T02:55:56.042Z,9.57
2022-09-07T02:58:44.362Z,11.03
2022-09-07T03:01:35.329Z,9.60
2022-09-07T03:04:31.421Z,16.63
2022-09-07T03:07:29.405Z,8.77
2022-09-07T03:09:58.181Z,14.60
2022-09-07T03:12:24.782Z,9.07
2022-09-07T03:14:51.330Z,9.23
2022-09-07T03:17:17.952Z,8.30
2022-09-07T03:19:44.568Z,8.60
2022-09-07T03:22:11.688Z,10.27
2022-09-07T03:24:38.238Z,9.77
2022-09-07T03:27:04.977Z,8.57
2022-09-07T03:29:31.590Z,9.17
2022-09-07T03:31:58.528Z,11.73
2022-09-07T03:34:25.207Z,9.77
2022-09-07T03:36:51.791Z,9.47
2022-09-07T03:39:20.894Z,18.63
2022-09-07T03:41:47.805Z,11.23
2022-09-07T03:44:14.374Z,11.00
2022-09-07T03:46:41.011Z,9.50
2022-09-07T03:49:07.583Z,11.67
2022-09-07T03:51:34.107Z,7.63
2022-09-07T03:54:00.717Z,8.13
2022-09-07T03:56:27.739Z,8.07
2022-09-07T03:58:54.733Z,8.60
2022-09-07T04:01:26.535Z,8.47
2022-09-07T04:03:53.863Z,17.43
2022-09-07T04:06:21.255Z,11.27
2022-09-07T04:08:47.945Z,12.97
2022-09-07T04:11:17.762Z,11.00
2022-09-07T04:13:46.511Z,15.87
2022-09-07T04:16:17.793Z,14.50
2022-09-07T04:18:44.842Z,11.20
2022-09-07T04:21:11.838Z,12.00
2022-09-07T04:23:41.499Z,11.43
2022-09-07T04:26:14.884Z,13.77
2022-09-07T04:28:42.090Z,12.43
2022-09-07T04:31:08.743Z,13.63
2022-09-07T04:33:35.481Z,13.17
2022-09-07T04:36:02.830Z,13.30
2022-09-07T04:38:30.408Z,15.90
2022-09-07T04:41:08.164Z,14.27
2022-09-07T04:43:35.981Z,14.80
2022-09-07T04:46:07.299Z,18.23
2022-09-07T04:48:34.460Z,14.93
2022-09-07T04:51:06.244Z,14.87
2022-09-07T04:53:33.899Z,19.83
2022-09-07T04:56:00.692Z,15.03
2022-09-07T04:58:27.315Z,18.80
2022-09-07T05:00:54.033Z,16.13
2022-09-07T05:03:21.019Z,21.10
2022-09-07T05:05:47.616Z,20.10
2022-09-07T05:08:14.224Z,14.13
2022-09-07T05:10:51.276Z,16.30
2022-09-07T05:13:17.921Z,27.47
2022-09-07T05:15:44.486Z,18.30
2022-09-07T05:18:11.732Z,19.30
2022-09-07T05:20:38.315Z,19.13
2022-09-07T05:23:04.876Z,18.80
2022-09-07T05:25:32.694Z,19.33
2022-09-07T05:27:59.315Z,16.30
2022-09-07T05:33:13.055Z,21.93
2022-09-07T05:35:39.638Z,18.10
2022-09-07T05:38:06.240Z,18.00
2022-09-07T05:40:36.090Z,17.20
2022-09-07T05:43:05.094Z,18.17
2022-09-07T05:45:31.929Z,16.77
2022-09-07T05:47:58.502Z,19.70
2022-09-07T05:50:25.044Z,17.37
2022-09-07T05:52:51.598Z,16.80
2022-09-07T05:55:30.038Z,16.63
2022-09-07T05:57:57.387Z,17.83
2022-09-07T06:00:24.580Z,17.93
2022-09-07T06:02:51.324Z,18.40
2022-09-07T06:05:18.252Z,18.23
2022-09-07T06:07:48.096Z,15.90
2022-09-07T06:13:02.379Z,17.47
2022-09-07T06:15:28.959Z,18.80
2022-09-07T06:17:56.108Z,18.53
2022-09-07T06:20:22.681Z,18.20
2022-09-07T06:22:50.139Z,17.63
2022-09-07T06:25:16.760Z,19.80
2022-09-07T06:27:43.502Z,18.83
2022-09-07T06:30:10.483Z,18.37
2022-09-07T06:35:08.561Z,19.03
2022-09-07T06:37:35.398Z,20.93
2022-09-07T06:40:02.311Z,18.40
2022-09-07T06:42:28.858Z,19.10
2022-09-07T06:44:57.610Z,20.70
2022-09-07T06:47:24.278Z,21.73
2022-09-07T06:49:51.119Z,22.60
2022-09-07T06:52:17.675Z,25.20
2022-09-07T06:55:00.144Z,20.37
2022-09-07T06:57:27.721Z,22.17
2022-09-07T06:59:54.315Z,19.57
2022-09-07T07:02:20.933Z,22.10
2022-09-07T07:04:49.968Z,20.73
2022-09-07T07:07:16.562Z,25.53
2022-09-07T07:09:43.158Z,17.73
2022-09-07T07:12:11.051Z,18.40
2022-09-07T07:14:41.071Z,21.40
2022-09-07T07:17:10.732Z,17.93
2022-09-07T07:19:37.489Z,16.97
2022-09-07T07:22:29.427Z,16.07
2022-09-07T07:24:51.818Z,14.47
2022-09-07T07:27:18.370Z,13.80
2022-09-07T07:29:46.383Z,12.43
2022-09-07T07:32:13.308Z,12.93
2022-09-07T07:34:39.946Z,12.77
2022-09-07T07:37:06.675Z,12.63
2022-09-07T07:42:21.258Z,13.33
2022-09-07T07:44:48.697Z,14.20
2022-09-07T07:47:15.366Z,13.50
2022-09-07T07:49:41.874Z,11.70
2022-09-07T07:54:55.565Z,12.93
2022-09-07T07:57:22.058Z,12.60
2022-09-07T07:59:49.460Z,10.97
2022-09-07T08:02:16.951Z,9.93
2022-09-07T08:04:43.821Z,10.10
2022-09-07T08:07:11.952Z,10.23
2022-09-07T08:09:43.382Z,10.30
2022-09-07T08:12:12.958Z,9.53
2022-09-07T08:14:41.137Z,11.90
2022-09-07T08:17:09.794Z,10.77
2022-09-07T08:19:36.712Z,8.40
2022-09-07T08:22:04.092Z,9.53
2022-09-07T08:24:31.892Z,9.10
2022-09-07T08:26:58.538Z,9.90
2022-09-07T08:29:25.073Z,9.23
2022-09-07T08:31:51.702Z,10.63
2022-09-07T08:34:18.923Z,11.33
2022-09-07T08:36:48.032Z,10.97
2022-09-07T08:39:14.594Z,9.80
2022-09-07T08:42:13.537Z,11.10
2022-09-07T08:44:54.995Z,9.27
2022-09-07T08:47:58.361Z,10.80
2022-09-07T08:50:35.188Z,11.20
2022-09-07T08:53:08.432Z,10.60
2022-09-07T08:55:49.491Z,10.40
2022-09-07T08:58:50.587Z,10.87
2022-09-07T09:01:35.979Z,11.03
2022-09-07T09:04:19.370Z,12.57
2022-09-07T09:06:56.941Z,12.90
2022-09-07T09:09:29.183Z,12.77
2022-09-07T09:12:13.167Z,13.97
2022-09-07T09:14:54.673Z,15.40
2022-09-07T09:17:27.315Z,12.97
2022-09-07T09:20:03.926Z,17.50
2022-09-07T09:22:31.319Z,14.00
2022-09-07T09:25:20.545Z,13.53
2022-09-07T09:27:48.975Z,13.77
2022-09-07T09:30:22.298Z,14.27
2022-09-07T09:32:52.708Z,18.70
2022-09-07T09:35:34.697Z,15.57
2022-09-07T09:38:03.535Z,14.63
2022-09-07T09:40:33.609Z,15.77
2022-09-07T09:43:01.974Z,14.90
2022-09-07T09:48:33.682Z,13.97
2022-09-07T09:53:54.696Z,16.20
2022-09-07T09:56:22.785Z,16.80
2022-09-07T09:59:05.236Z,14.47
2022-09-07T10:01:33.584Z,15.37
2022-09-07T10:04:33.857Z,14.77
2022-09-07T10:07:14.847Z,14.10
2022-09-07T10:09:48.753Z,15.53
2022-09-07T10:12:28.834Z,14.27
2022-09-07T10:14:57.105Z,14.37
2022-09-07T10:17:31.227Z,14.87
2022-09-07T10:20:03.976Z,13.00
2022-09-07T10:22:35.689Z,11.97
2022-09-07T10:25:05.098Z,11.03
2022-09-07T10:27:33.302Z,11.77
2022-09-07T10:30:01.142Z,10.87
2022-09-07T10:32:57.416Z,11.63
2022-09-07T10:35:28.799Z,12.43
2022-09-07T10:38:16.637Z,12.80
2022-09-07T10:40:47.595Z,12.43
2022-09-07T10:43:45.716Z,11.90
2022-09-07T10:49:28.025Z,9.97
2022-09-07T10:52:22.300Z,12.03
2022-09-07T10:55:15.756Z,11.27
2022-09-07T10:57:45.648Z,11.77
2022-09-07T11:00:18.890Z,11.10
2022-09-07T11:06:16.551Z,8.83
2022-09-07T11:09:22.118Z,11.20
2022-09-07T11:12:02.983Z,12.20
2022-09-07T11:14:45.401Z,10.43
2022-09-07T11:17:27.015Z,10.50
2022-09-07T11:20:17.403Z,11.27
2022-09-07T11:22:52.008Z,10.57
2022-09-07T11:25:32.640Z,9.70
2022-09-07T11:28:08.216Z,9.17
2022-09-07T11:30:40.530Z,9.93
2022-09-07T11:33:19.124Z,8.87
2022-09-07T11:35:53.094Z,11.20
2022-09-07T11:38:25.819Z,10.30
2022-09-07T11:41:19.688Z,10.50
2022-09-07T11:43:51.060Z,8.83
2022-09-07T11:46:26.628Z,7.40
2022-09-07T11:48:55.887Z,7.17
2022-09-07T11:51:43.361Z,8.23
2022-09-07T11:54:33.814Z,7.37
2022-09-07T11:57:08.180Z,7.43
2022-09-07T11:59:45.138Z,6.97
2022-09-07T12:02:58.435Z,7.73
2022-09-07T12:05:53.454Z,6.87
2022-09-07T12:08:38.392Z,7.47
2022-09-07T12:11:11.223Z,9.73
2022-09-07T12:13:55.900Z,8.67
2022-09-07T12:16:40.939Z,6.27
2022-09-07T12:19:20.447Z,6.43
2022-09-07T12:21:53.540Z,6.17
2022-09-07T12:24:48.455Z,6.30
2022-09-07T12:27:21.296Z,5.20
2022-09-07T12:29:51.122Z,5.20
2022-09-07T12:32:54.978Z,5.63
2022-09-07T12:35:31.029Z,5.70
2022-09-07T12:37:58.802Z,5.40
2022-09-07T12:40:33.147Z,5.27
2022-09-07T12:43:14.812Z,5.63
2022-09-07T12:45:41.927Z,5.70
2022-09-07T12:48:17.654Z,6.37
2022-09-07T12:51:00.305Z,4.80
2022-09-07T12:53:58.069Z,4.73
2022-09-07T12:56:30.613Z,5.33
2022-09-07T12:59:31.372Z,7.73
2022-09-07T13:02:10.313Z,5.33
2022-09-07T13:05:02.671Z,5.00
2022-09-07T13:07:41.130Z,5.73
2022-09-07T13:10:28.040Z,5.30
2022-09-07T13:13:01.308Z,5.40
2022-09-07T13:15:48.857Z,4.90
2022-09-07T13:18:28.172Z,7.73
2022-09-07T13:21:32.054Z,5.30
2022-09-07T13:27:03.757Z,6.30
2022-09-07T13:29:55.224Z,6.10
2022-09-07T13:35:22.200Z,5.83
2022-09-07T13:37:57.626Z,6.03
2022-09-07T13:40:27.797Z,5.57
2022-09-07T13:42:56.807Z,5.20
2022-09-07T13:45:57.667Z,5.40
2022-09-07T13:48:48.946Z,15.73
2022-09-07T13:51:55.573Z,6.73
2022-09-07T13:54:50.779Z,9.13
2022-09-07T13:57:49.837Z,5.03
2022-09-07T14:00:17.337Z,5.60
2022-09-07T14:02:44.659Z,6.53
2022-09-07T14:05:18.418Z,5.50
2022-09-07T14:07:45.982Z,10.13
2022-09-07T14:10:25.057Z,8.47
2022-09-07T14:13:06.738Z,5.53
2022-09-07T14:15:45.804Z,5.70
2022-09-07T14:18:15.131Z,5.83
2022-09-07T14:20:51.329Z,5.70
2022-09-07T14:23:28.006Z,8.13
2022-09-07T14:26:17.278Z,6.30
2022-09-07T14:28:45.975Z,5.67
2022-09-07T14:31:15.807Z,5.63
2022-09-07T14:34:01.453Z,8.50
2022-09-07T14:36:46.743Z,6.50
2022-09-07T14:39:16.431Z,5.53
2022-09-07T14:41:44.146Z,6.10
2022-09-07T14:44:29.188Z,5.60
2022-09-07T14:46:57.707Z,12.43
2022-09-07T14:49:24.643Z,4.83
2022-09-07T14:51:54.015Z,6.43
2022-09-07T14:54:30.784Z,5.40
2022-09-07T14:57:03.385Z,6.20
2022-09-07T14:59:43.267Z,8.90
2022-09-07T15:02:36.623Z,5.67
2022-09-07T15:05:15.077Z,6.30
2022-09-07T15:07:46.965Z,5.93
2022-09-07T15:10:23.456Z,7.73
2022-09-07T15:12:59.412Z,5.67
2022-09-07T15:15:35.017Z,5.40
2022-09-07T15:18:23.088Z,5.93
2022-09-07T15:20:50.576Z,6.20
2022-09-07T15:23:19.576Z,7.07
2022-09-07T15:25:51.958Z,8.83
2022-09-07T15:34:12.004Z,5.60
2022-09-07T15:37:00.258Z,5.50
2022-09-07T15:39:29.517Z,5.03
2022-09-07T15:41:57.205Z,4.93
2022-09-07T15:44:26.493Z,5.70
2022-09-07T15:49:46.073Z,5.80
2022-09-07T15:52:16.430Z,5.80
2022-09-07T15:54:43.493Z,4.90
2022-09-07T15:59:57.346Z,4.83
2022-09-07T16:05:10.865Z,5.57
2022-09-07T16:10:24.807Z,4.90
2022-09-07T16:15:46.125Z,4.93
2022-09-07T16:18:16.445Z,6.20
2022-09-07T16:20:44.033Z,5.73
2022-09-07T16:23:13.683Z,9.40
2022-09-07T16:25:43.036Z,5.33
2022-09-07T16:28:09.879Z,5.43
2022-09-07T16:30:39.998Z,5.50
2022-09-07T16:33:06.661Z,9.10
2022-09-07T16:35:33.528Z,5.43
2022-09-07T16:40:46.994Z,4.70
2022-09-07T16:43:13.528Z,5.03
2022-09-07T16:48:27.750Z,4.57
2022-09-07T16:51:01.150Z,4.43
2022-09-07T16:53:31.004Z,4.47
2022-09-07T16:56:24.668Z,5.37
2022-09-07T16:58:54.725Z,4.73
2022-09-07T17:01:24.395Z,5.17
2022-09-07T17:03:52.215Z,4.77
2022-09-07T17:06:21.050Z,4.90
2022-09-07T17:08:47.845Z,5.13
2022-09-07T17:11:17.773Z,5.13
2022-09-07T17:13:45.179Z,5.63
2022-09-07T17:16:13.415Z,5.37
2022-09-07T17:21:36.206Z,5.90
2022-09-07T17:24:05.113Z,3.73
2022-09-07T17:26:32.553Z,4.30
2022-09-07T17:29:01.056Z,3.93
2022-09-07T17:34:20.194Z,6.63
2022-09-07T17:36:47.315Z,4.47
2022-09-07T17:39:16.199Z,4.00
2022-09-07T17:41:44.738Z,5.40
2022-09-07T17:44:11.596Z,8.27
2022-09-07T17:46:38.412Z,5.27
2022-09-07T17:49:07.050Z,5.60
2022-09-07T17:51:33.647Z,14.77
2022-09-07T17:54:09.675Z,4.30
2022-09-07T17:56:37.300Z,3.87
2022-09-07T18:01:50.815Z,7.67
2022-09-07T18:04:17.584Z,46.23
2022-09-07T18:06:44.139Z,5.57
2022-09-07T18:09:11.219Z,6.43
2022-09-07T18:11:46.373Z,4.07
2022-09-07T18:14:14.450Z,3.67
2022-09-07T18:16:42.437Z,4.30
2022-09-07T18:19:10.969Z,5.27
2022-09-07T18:21:38.282Z,7.13
2022-09-07T18:24:16.500Z,9.83
2022-09-07T18:26:44.759Z,4.33
2022-09-07T18:29:28.099Z,6.00
2022-09-07T18:31:56.687Z,10.13
2022-09-07T18:34:23.314Z,3.80
2022-09-07T18:36:50.109Z,5.73
2022-09-07T18:39:17.086Z,5.53
2022-09-07T18:41:43.988Z,6.70
2022-09-07T18:46:57.197Z,6.00
2022-09-07T18:49:24.943Z,11.70
2022-09-07T18:54:41.324Z,6.00
2022-09-07T18:57:08.186Z,7.93
2022-09-07T18:59:35.363Z,12.83
2022-09-07T19:02:04.780Z,9.03
2022-09-07T19:07:27.350Z,4.70
2022-09-07T19:09:56.377Z,6.17
2022-09-07T19:12:24.159Z,5.13
2022-09-07T19:14:50.921Z,10.73
2022-09-07T19:17:17.821Z,10.23
2022-09-07T19:19:44.460Z,5.93
2022-09-07T19:22:10.997Z,8.47
2022-09-07T19:24:38.187Z,6.10
2022-09-07T19:27:07.452Z,4.67
2022-09-07T19:29:34.071Z,13.13
2022-09-07T19:32:11.898Z,5.57
2022-09-07T19:34:43.316Z,5.33
2022-09-07T19:37:12.042Z,5.40
2022-09-07T19:39:38.799Z,10.60
2022-09-07T19:42:06.234Z,4.70
2022-09-07T19:44:33.233Z,5.30
2022-09-07T19:47:00.628Z,6.70
2022-09-07T19:49:27.862Z,7.47
2022-09-07T19:51:54.791Z,5.70
2022-09-07T19:54:21.511Z,8.87
2022-09-07T19:56:48.596Z,6.63
2022-09-07T19:59:15.230Z,7.83
2022-09-07T20:01:46.201Z,14.90
2022-09-07T20:04:20.419Z,8.80
2022-09-07T20:06:49.824Z,10.10
2022-09-07T20:09:18.502Z,10.50
2022-09-07T20:11:47.361Z,11.57
2022-09-07T20:14:17.460Z,10.30
2022-09-07T20:16:44.163Z,9.20
2022-09-07T20:19:12.209Z,9.93
2022-09-07T20:21:38.827Z,10.33
2022-09-07T20:24:05.803Z,12.70
2022-09-07T20:26:32.683Z,11.90
2022-09-07T20:29:16.799Z,12.07
2022-09-07T20:31:47.559Z,10.50
2022-09-07T20:34:14.407Z,13.87
2022-09-07T20:36:41.551Z,11.30
2022-09-07T20:39:08.122Z,11.70
2022-09-07T20:41:35.668Z,10.93
2022-09-07T20:44:04.102Z,11.30
2022-09-07T20:46:31.276Z,11.83
2022-09-07T20:48:58.195Z,10.83
2022-09-07T20:51:24.900Z,13.07
2022-09-07T20:53:51.951Z,10.83
2022-09-07T20:56:23.583Z,12.27
2022-09-07T20:58:55.301Z,12.03
2022-09-07T21:01:22.394Z,11.03
2022-09-07T21:03:51.338Z,14.20
2022-09-07T21:06:20.288Z,11.87
2022-09-07T21:08:47.721Z,12.20
2022-09-07T21:11:20.563Z,12.57
2022-09-07T21:13:47.671Z,12.80
2022-09-07T21:16:16.223Z,13.53
2022-09-07T21:18:44.381Z,20.63
2022-09-07T21:21:20.412Z,11.57
2022-09-07T21:23:47.821Z,14.20
2022-09-07T21:26:14.630Z,12.77
2022-09-07T21:28:41.139Z,15.17
2022-09-07T21:31:08.869Z,13.30
2022-09-07T21:33:37.237Z,11.23
2022-09-07T21:36:04.749Z,12.50
2022-09-07T21:38:31.347Z,12.57
2022-09-07T21:40:57.858Z,12.00
2022-09-07T21:43:24.366Z,18.67
2022-09-07T21:45:51.164Z,12.97
2022-09-07T21:48:17.646Z,12.93
2022-09-07T21:50:46.695Z,13.03
2022-09-07T21:53:13.239Z,11.10
2022-09-07T21:55:39.975Z,12.47
2022-09-07T21:58:06.509Z,14.67
2022-09-07T22:00:33.540Z,12.83
2022-09-07T22:03:00.787Z,12.77
2022-09-07T22:05:27.443Z,16.93
2022-09-07T22:07:53.952Z,11.93
2022-09-07T22:10:20.855Z,14.10
2022-09-07T22:12:47.342Z,12.20
2022-09-07T22:15:14.277Z,11.40
2022-09-07T22:17:45.671Z,13.47
2022-09-07T22:20:12.802Z,16.30
2022-09-07T22:22:39.340Z,12.70
2022-09-07T22:25:06.401Z,12.20
2022-09-07T22:27:32.911Z,13.70
2022-09-07T22:29:59.423Z,12.27
2022-09-07T22:32:25.953Z,10.67
2022-09-07T22:34:53.087Z,15.40
2022-09-07T22:37:19.601Z,11.30
2022-09-07T22:39:46.140Z,10.57
2022-09-07T22:42:12.666Z,11.53
2022-09-07T22:44:39.572Z,12.87
2022-09-07T22:47:06.103Z,14.63
2022-09-07T22:49:33.177Z,12.53
2022-09-07T22:51:59.706Z,11.17
2022-09-07T22:54:26.316Z,12.47
2022-09-07T22:56:52.932Z,15.20
2022-09-07T22:59:19.451Z,11.80
2022-09-07T23:01:46.882Z,11.67
2022-09-07T23:04:13.639Z,18.90
2022-09-07T23:06:42.336Z,12.70
2022-09-07T23:09:12.695Z,18.53
2022-09-07T23:11:39.687Z,14.83
2022-09-07T23:14:12.275Z,12.40
2022-09-07T23:16:39.291Z,12.47
2022-09-07T23:19:05.951Z,10.97
2022-09-07T23:21:32.748Z,12.97
2022-09-07T23:23:59.947Z,13.43
2022-09-07T23:26:29.528Z,12.50
2022-09-07T23:28:59.041Z,12.90
2022-09-07T23:31:26.924Z,13.13
2022-09-07T23:33:53.952Z,11.50
2022-09-07T23:36:20.488Z,12.33
2022-09-07T23:38:47.299Z,11.33
2022-09-07T23:41:14.748Z,11.47
2022-09-07T23:43:41.637Z,12.27
2022-09-07T23:46:09.712Z,12.17
2022-09-07T23:48:36.347Z,13.13
2022-09-07T23:51:02.926Z,12.23
2022-09-07T23:53:29.894Z,15.20
2022-09-07T23:55:56.806Z,11.63
2022-09-07T23:58:23.739Z,20.40
